Current Weather

La Porte Muni

La Porte, Indiana (KPPO)

Report from: Friday, February 23, 2024 2:15 PM CST
Current time: Friday, February 23, 2024 2:40 PM CST

Nearby weather – Weather history – Daily summaries
Weather forecast

Temperature6.0°C (42.8°F)
Wind chill3.0°C (37.4°F)
Dew point-0.3°C (31.5°F)
Winds 8 kts (4.1 m/s, 9.2 mph) North (10°)
Wind gusts 15 kts (7.7 m/s, 17.3 mph)
Visibility10 mi. (16.1 km)
Clouds Sky clear
Altimeter29.69 in.Hg (1005 mB)
Relative humidity64 %
Density altitude-727 ft. (-221 m)
Remarks Fully automated report
Automated weather observing station with precipitation discriminator
Flight conditions Visual Meteorological Conditions
Raw dataKPPO 232015Z AUTO 01008G15KT 10SM CLR 06/00 A2969 RMK AO2 T00601003
An error has occurred. This application may no longer respond until reloaded. Reload 🗙